Time;durP1;ratioP1;P1;durP2;ratioP2;P2;SDS_P1;SDS_P2;PMS_P1;PMS_P2;Temp;Humidity;BMP_temperature;BMP_pressure;BME280_temperature;BME280_humidity;BME280_pressure;Samples;Min_cycle;Max_cycle;Signal;HPM_P1;HPM_P2
2023/07/11 00:01:00;;;;;;;;;;;;;;;26.63;63.52;98828.06;5093804;28;19919;-46
2023/07/11 00:03:26;;;;;;;;;;;;;;;26.69;63.26;98826.84;5093766;28;20065;-46
2023/07/11 00:05:58;;;;;;;;;;;;;;;26.71;63.39;98829.25;5093645;28;19919;-46
2023/07/11 00:08:24;;;;;;;;;;;;;;;26.83;63.00;98839.50;5094983;28;19919;-46
2023/07/11 00:10:49;;;;;;;;;;;;;;;26.77;62.67;98844.19;5093649;28;19912;-46
2023/07/11 00:13:14;;;;;;;;;;;;;;;26.53;63.17;98843.63;5093631;28;19912;-46
2023/07/11 00:15:40;;;;;;;;;;;;;;;26.35;63.71;98846.13;5094813;28;19919;-46
2023/07/11 00:18:05;;;;;;;;;;;;;;;26.06;64.29;98847.25;5094828;28;19912;-46
2023/07/11 00:20:31;;;;;;;;;;;;;;;25.81;65.13;98853.06;5094770;28;20007;-46
2023/07/11 00:22:56;;;;;;;;;;;;;;;25.61;65.50;98852.31;5094687;28;19912;-45
2023/07/11 00:25:21;;;;;;;;;;;;;;;25.52;65.76;98849.53;5093245;28;20015;-46
2023/07/11 00:27:47;;;;;;;;;;;;;;;25.50;65.62;98846.34;5093322;28;19912;-46
2023/07/11 00:30:12;;;;;;;;;;;;;;;25.48;65.86;98850.41;5093258;28;19912;-46
2023/07/11 00:32:38;;;;;;;;;;;;;;;25.47;66.12;98851.50;5094805;28;19923;-46
2023/07/11 00:35:04;;;;;;;;;;;;;;;25.42;66.21;98857.75;5093021;28;20383;-46
2023/07/11 00:37:29;;;;;;;;;;;;;;;25.52;67.27;98860.28;5093121;28;20289;-46
2023/07/11 00:39:54;;;;;;;;;;;;;;;25.62;67.00;98853.94;5093127;28;20275;-46
2023/07/11 00:42:20;;;;;;;;;;;;;;;25.63;66.79;98838.59;5092962;28;19922;-46
2023/07/11 00:44:49;;;;;;;;;;;;;;;25.47;67.18;98846.13;5094364;28;19912;-46
2023/07/11 00:47:15;;;;;;;;;;;;;;;25.29;67.40;98856.63;5092878;28;19920;-46
2023/07/11 00:49:40;;;;;;;;;;;;;;;25.15;67.70;98844.97;5094182;28;20033;-45
2023/07/11 00:52:06;;;;;;;;;;;;;;;25.08;68.13;98852.63;5094138;28;19970;-45
2023/07/11 00:54:33;;;;;;;;;;;;;;;25.02;69.16;98848.44;5094078;28;19916;-46
2023/07/11 00:57:01;;;;;;;;;;;;;;;24.97;69.40;98845.81;5094069;28;19916;-46
2023/07/11 00:59:26;;;;;;;;;;;;;;;24.94;69.34;98839.13;5092457;28;19912;-46
2023/07/11 01:02:05;;;;;;;;;;;;;;;24.91;69.81;98834.34;5093942;28;19912;-45
2023/07/11 01:04:31;;;;;;;;;;;;;;;24.85;69.78;98830.94;5092629;28;19951;-45
2023/07/11 01:06:56;;;;;;;;;;;;;;;24.86;70.29;98826.38;5092510;28;20459;-45
2023/07/11 01:09:22;;;;;;;;;;;;;;;24.82;69.92;98828.03;5092601;28;19915;-46
2023/07/11 01:11:53;;;;;;;;;;;;;;;24.83;70.48;98822.38;5093786;28;19912;-46
2023/07/11 01:14:18;;;;;;;;;;;;;;;24.86;70.27;98816.41;5092403;28;19918;-46
2023/07/11 01:16:44;;;;;;;;;;;;;;;24.89;70.15;98815.84;5092395;28;19912;-46
2023/07/11 01:19:10;;;;;;;;;;;;;;;24.85;70.44;98809.47;5092350;28;20014;-46
2023/07/11 01:21:35;;;;;;;;;;;;;;;24.85;70.62;98816.72;5093568;28;19912;-45
2023/07/11 01:24:01;;;;;;;;;;;;;;;24.85;70.96;98812.16;5092289;28;20373;-46
2023/07/11 01:26:26;;;;;;;;;;;;;;;24.87;70.72;98812.66;5092058;28;20289;-46
2023/07/11 01:28:51;;;;;;;;;;;;;;;24.97;70.43;98810.91;5092187;28;19916;-45
2023/07/11 01:31:17;;;;;;;;;;;;;;;24.94;69.97;98806.13;5092122;28;19965;-45
2023/07/11 01:33:42;;;;;;;;;;;;;;;24.89;69.79;98805.13;5091777;28;20011;-45
2023/07/11 01:36:08;;;;;;;;;;;;;;;24.92;69.76;98817.16;5092089;28;19951;-45
2023/07/11 01:38:33;;;;;;;;;;;;;;;24.94;69.89;98806.13;5091903;28;20372;-45
2023/07/11 01:40:58;;;;;;;;;;;;;;;25.08;70.05;98801.59;5091904;28;20338;-46
2023/07/11 01:43:26;;;;;;;;;;;;;;;25.09;69.82;98789.75;5091794;28;19933;-45
2023/07/11 01:45:51;;;;;;;;;;;;;;;25.00;69.99;98799.59;5091738;28;19912;-46
2023/07/11 01:48:17;;;;;;;;;;;;;;;24.87;70.37;98796.56;5093073;28;20344;-45
2023/07/11 01:50:42;;;;;;;;;;;;;;;24.77;70.50;98798.56;5091749;28;19912;-45
2023/07/11 01:53:08;;;;;;;;;;;;;;;24.67;70.97;98792.28;5091708;28;20400;-45
2023/07/11 01:55:33;;;;;;;;;;;;;;;24.60;71.17;98786.47;5092832;28;20015;-45
2023/07/11 01:57:58;;;;;;;;;;;;;;;24.55;71.78;98791.09;5092874;28;19920;-46
2023/07/11 02:00:24;;;;;;;;;;;;;;;24.47;72.23;98785.28;5091811;28;19935;-45
2023/07/11 02:02:49;;;;;;;;;;;;;;;24.46;72.22;98782.88;5091573;28;19912;-45
2023/07/11 02:05:15;;;;;;;;;;;;;;;24.42;72.11;98779.19;5092736;28;20292;-45
2023/07/11 02:07:41;;;;;;;;;;;;;;;24.44;72.03;98783.16;5091402;28;20453;-45
2023/07/11 02:10:07;;;;;;;;;;;;;;;24.45;71.96;98768.69;5092455;28;19912;-45
2023/07/11 02:12:33;;;;;;;;;;;;;;;24.74;72.17;98770.44;5091282;28;19955;-46
2023/07/11 02:14:58;;;;;;;;;;;;;;;25.06;71.63;98766.19;5092678;28;19970;-45
2023/07/11 02:17:23;;;;;;;;;;;;;;;25.24;70.13;98767.25;5092632;28;19919;-45
2023/07/11 02:19:49;;;;;;;;;;;;;;;25.04;69.63;98763.78;5092605;28;19912;-46
2023/07/11 02:22:14;;;;;;;;;;;;;;;24.91;70.42;98762.66;5092533;28;20305;-46
2023/07/11 02:24:40;;;;;;;;;;;;;;;24.89;70.27;98762.16;5092586;28;20045;-45
2023/07/11 02:27:06;;;;;;;;;;;;;;;24.71;70.52;98765.66;5091150;28;19916;-45
2023/07/11 02:29:31;;;;;;;;;;;;;;;24.66;70.68;98763.84;5092426;28;19912;-45
2023/07/11 02:31:57;;;;;;;;;;;;;;;24.59;70.81;98763.41;5092416;28;19981;-45
2023/07/11 02:34:22;;;;;;;;;;;;;;;24.50;71.45;98760.56;5092166;28;20007;-45
2023/07/11 02:36:47;;;;;;;;;;;;;;;24.60;71.39;98762.31;5092351;28;19916;-45
2023/07/11 02:39:13;;;;;;;;;;;;;;;24.97;71.13;98751.81;5092293;28;19918;-45
2023/07/11 02:41:39;;;;;;;;;;;;;;;25.07;69.96;98757.84;5091032;28;19938;-45
2023/07/11 02:44:04;;;;;;;;;;;;;;;25.24;70.14;98765.38;5092328;28;19915;-46
2023/07/11 02:46:30;;;;;;;;;;;;;;;25.67;69.47;98750.88;5090876;28;19915;-46
2023/07/11 02:48:55;;;;;;;;;;;;;;;25.88;68.21;98752.09;5090972;28;19916;-45
2023/07/11 02:51:21;;;;;;;;;;;;;;;25.86;67.51;98748.13;5090951;28;19912;-45
2023/07/11 02:53:46;;;;;;;;;;;;;;;25.72;67.24;98745.44;5074090;28;19912;-46
2023/07/11 02:56:12;;;;;;;;;;;;;;;25.54;67.93;98744.41;5092182;28;19916;-45
2023/07/11 02:58:37;;;;;;;;;;;;;;;25.36;67.79;98746.09;5090904;28;19912;-46
2023/07/11 03:01:03;;;;;;;;;;;;;;;25.08;68.22;98748.69;5092183;28;19912;-45
2023/07/11 03:03:28;;;;;;;;;;;;;;;24.97;68.72;98739.22;5090799;28;19969;-45
2023/07/11 03:05:55;;;;;;;;;;;;;;;24.79;69.50;98732.78;5092068;28;19915;-45
2023/07/11 03:08:20;;;;;;;;;;;;;;;24.66;69.75;98734.31;5090870;28;19912;-46
2023/07/11 03:10:45;;;;;;;;;;;;;;;24.61;69.95;98739.78;5090778;28;20419;-45
2023/07/11 03:13:11;;;;;;;;;;;;;;;24.62;70.07;98741.34;5092096;28;19912;-45
2023/07/11 03:15:37;;;;;;;;;;;;;;;24.63;70.10;98748.34;5092006;28;19916;-46
2023/07/11 03:18:03;;;;;;;;;;;;;;;24.66;70.41;98745.06;5090706;28;19912;-45
2023/07/11 03:20:28;;;;;;;;;;;;;;;24.99;70.33;98738.91;5091984;28;20408;-45
2023/07/11 03:22:54;;;;;;;;;;;;;;;25.34;69.58;98739.44;5094767;28;19916;-46
2023/07/11 03:25:20;;;;;;;;;;;;;;;25.39;68.46;98736.63;5095827;28;19938;-45
2023/07/11 03:27:45;;;;;;;;;;;;;;;25.19;68.52;98727.81;5095741;28;19955;-46
2023/07/11 03:30:11;;;;;;;;;;;;;;;24.98;68.80;98731.94;5094320;28;19966;-46
2023/07/11 03:32:36;;;;;;;;;;;;;;;24.72;68.85;98732.34;5095738;28;19916;-45
2023/07/11 03:35:02;;;;;;;;;;;;;;;24.54;69.26;98728.59;5094160;28;19923;-45
2023/07/11 03:37:27;;;;;;;;;;;;;;;24.45;69.46;98724.97;5094285;28;20453;-45
2023/07/11 03:39:53;;;;;;;;;;;;;;;24.48;69.62;98727.84;5077408;28;20010;-46
2023/07/11 03:42:18;;;;;;;;;;;;;;;24.51;69.74;98727.31;5094250;28;19916;-45
2023/07/11 03:44:44;;;;;;;;;;;;;;;24.47;69.99;98725.47;5095490;28;19998;-45
2023/07/11 03:47:10;;;;;;;;;;;;;;;24.37;69.94;98722.91;5077173;28;19978;-46
2023/07/11 03:49:35;;;;;;;;;;;;;;;24.33;70.54;98728.88;5094091;28;20381;-45
2023/07/11 03:52:01;;;;;;;;;;;;;;;24.38;70.80;98722.63;5095326;28;19916;-45
2023/07/11 03:54:26;;;;;;;;;;;;;;;24.30;70.76;98724.06;5095359;28;19957;-45
2023/07/11 03:56:52;;;;;;;;;;;;;;;24.21;71.40;98725.03;5093941;28;19918;-45
2023/07/11 03:59:18;;;;;;;;;;;;;;;24.09;71.71;98728.94;5095242;28;19912;-45
2023/07/11 04:01:43;;;;;;;;;;;;;;;24.08;71.66;98726.53;5094149;28;19923;-45
2023/07/11 04:04:09;;;;;;;;;;;;;;;24.13;71.37;98727.25;5093827;28;19916;-46
2023/07/11 04:06:34;;;;;;;;;;;;;;;24.23;71.04;98731.69;5095010;28;20335;-45
2023/07/11 04:09:00;;;;;;;;;;;;;;;24.31;70.63;98730.25;5095019;28;20267;-45
2023/07/11 04:11:25;;;;;;;;;;;;;;;24.38;70.39;98728.00;5093614;28;20002;-46
2023/07/11 04:13:51;;;;;;;;;;;;;;;24.41;70.24;98727.44;5093632;28;19993;-45
2023/07/11 04:16:16;;;;;;;;;;;;;;;24.38;70.12;98733.34;5094841;28;19916;-46
2023/07/11 04:18:42;;;;;;;;;;;;;;;24.43;69.75;98733.28;5095112;28;19965;-45
2023/07/11 04:21:07;;;;;;;;;;;;;;;24.56;69.66;98739.03;5094784;28;20486;-45
2023/07/11 04:23:33;;;;;;;;;;;;;;;24.63;69.41;98728.72;5094696;28;19960;-45
2023/07/11 04:25:58;;;;;;;;;;;;;;;24.78;68.97;98722.34;5094608;28;19981;-45
2023/07/11 04:28:24;;;;;;;;;;;;;;;24.96;68.72;98731.44;5093371;28;19911;-45
2023/07/11 04:30:49;;;;;;;;;;;;;;;25.18;68.38;98728.91;5093309;28;20403;-46
2023/07/11 04:33:14;;;;;;;;;;;;;;;25.35;67.66;98723.00;5093953;28;19941;-46
2023/07/11 04:35:40;;;;;;;;;;;;;;;25.52;66.59;98709.78;5093242;28;19912;-45
2023/07/11 04:38:05;;;;;;;;;;;;;;;25.61;65.85;98717.94;5093157;28;19935;-46
2023/07/11 04:40:31;;;;;;;;;;;;;;;25.74;64.87;98715.56;5076227;28;20014;-45
2023/07/11 04:42:58;;;;;;;;;;;;;;;25.91;64.58;98710.38;5094367;28;19919;-45
2023/07/11 04:45:23;;;;;;;;;;;;;;;26.07;63.73;98711.66;5094314;28;19965;-45
2023/07/11 04:47:49;;;;;;;;;;;;;;;26.17;63.35;98717.91;5092886;28;19920;-45
2023/07/11 04:50:14;;;;;;;;;;;;;;;26.22;62.85;98709.72;5092920;28;20385;-46
2023/07/11 04:52:40;;;;;;;;;;;;;;;26.16;63.00;98708.25;5092907;28;19916;-45
2023/07/11 04:55:06;;;;;;;;;;;;;;;26.35;63.05;98708.09;5094102;28;19912;-46
2023/07/11 04:57:31;;;;;;;;;;;;;;;26.56;62.03;98708.41;5094091;28;19918;-46
2023/07/11 04:59:57;;;;;;;;;;;;;;;26.93;60.70;98706.50;5094076;28;19916;-45
2023/07/11 05:02:22;;;;;;;;;;;;;;;27.49;59.32;98708.53;5092660;28;19965;-46
2023/07/11 05:04:47;;;;;;;;;;;;;;;27.77;57.21;98715.59;5092612;28;20011;-46
2023/07/11 05:07:13;;;;;;;;;;;;;;;27.97;56.69;98716.94;5093796;28;19974;-46
2023/07/11 05:09:39;;;;;;;;;;;;;;;28.24;55.74;98713.16;5093899;28;19915;-46
2023/07/11 05:12:04;;;;;;;;;;;;;;;28.47;55.14;98709.22;5092472;28;20446;-46
2023/07/11 05:14:30;;;;;;;;;;;;;;;28.82;54.37;98708.41;5093743;28;19938;-46
2023/07/11 05:16:55;;;;;;;;;;;;;;;29.05;53.15;98711.69;5093656;28;19912;-46
2023/07/11 05:19:21;;;;;;;;;;;;;;;29.49;53.19;98715.06;5092385;28;19966;-46
2023/07/11 05:21:47;;;;;;;;;;;;;;;30.44;51.26;98712.91;5092261;28;19961;-46
2023/07/11 05:24:12;;;;;;;;;;;;;;;31.22;49.44;98716.78;5093574;28;20010;-46
2023/07/11 05:26:37;;;;;;;;;;;;;;;31.75;47.49;98712.31;5092087;28;19912;-46
2023/07/11 05:29:06;;;;;;;;;;;;;;;31.79;46.13;98707.00;5093426;28;20007;-46
2023/07/11 05:31:32;;;;;;;;;;;;;;;31.78;45.84;98706.22;5092084;28;20369;-46
2023/07/11 05:33:58;;;;;;;;;;;;;;;31.82;46.17;98704.41;5091865;28;19927;-46
2023/07/11 05:36:32;;;;;;;;;;;;;;;32.20;45.57;98697.78;5093573;28;19999;-46
2023/07/11 05:39:06;;;;;;;;;;;;;;;32.45;44.37;98703.13;5092051;28;19912;-46
2023/07/11 05:41:32;;;;;;;;;;;;;;;32.61;44.15;98700.50;5091945;28;20329;-46
2023/07/11 05:43:58;;;;;;;;;;;;;;;33.21;42.84;98695.84;5093207;28;19951;-46
2023/07/11 05:46:24;;;;;;;;;;;;;;;33.52;41.38;98696.19;5092176;28;19959;-46
2023/07/11 05:48:49;;;;;;;;;;;;;;;33.76;41.10;98682.38;5093133;28;19915;-46
2023/07/11 05:51:16;;;;;;;;;;;;;;;33.63;40.62;98670.81;5091717;28;19919;-46
2023/07/11 05:53:42;;;;;;;;;;;;;;;33.95;40.10;98670.75;5093308;28;19912;-46
2023/07/11 05:56:07;;;;;;;;;;;;;;;34.16;39.85;98670.41;5091596;28;20397;-46
2023/07/11 05:58:33;;;;;;;;;;;;;;;34.15;39.41;98665.34;5091648;28;19923;-46
2023/07/11 06:00:59;;;;;;;;;;;;;;;34.21;39.26;98669.34;5092883;28;20090;-46
2023/07/11 06:03:25;;;;;;;;;;;;;;;34.48;38.08;98674.94;5092866;28;19991;-46
2023/07/11 06:05:51;;;;;;;;;;;;;;;34.59;38.09;98665.00;5092771;28;19919;-46
2023/07/11 06:08:17;;;;;;;;;;;;;;;34.87;37.93;98663.97;5092859;28;19912;-46
2023/07/11 06:10:43;;;;;;;;;;;;;;;35.63;36.79;98660.50;5091423;28;19919;-46
2023/07/11 06:13:10;;;;;;;;;;;;;;;35.93;35.93;98660.53;5092725;28;19911;-46
2023/07/11 06:15:35;;;;;;;;;;;;;;;35.89;35.92;98662.44;5091374;28;19912;-46
2023/07/11 06:18:01;;;;;;;;;;;;;;;36.12;35.41;98659.59;5091340;28;19926;-46
2023/07/11 06:20:26;;;;;;;;;;;;;;;36.34;34.98;98661.47;5091269;28;19962;-46
2023/07/11 06:22:52;;;;;;;;;;;;;;;36.70;34.21;98661.06;5091386;28;19912;-46
2023/07/11 06:25:17;;;;;;;;;;;;;;;37.22;34.26;98658.41;5074329;28;20339;-46
2023/07/11 06:27:43;;;;;;;;;;;;;;;37.94;33.17;98657.69;5091140;28;19912;-47
2023/07/11 06:30:09;;;;;;;;;;;;;;;38.82;31.88;98651.28;5091133;28;19916;-46
2023/07/11 06:32:34;;;;;;;;;;;;;;;39.62;30.19;98644.59;5091150;28;19912;-46
2023/07/11 06:34:59;;;;;;;;;;;;;;;39.43;30.54;98635.63;5092120;28;20490;-46
2023/07/11 06:37:25;;;;;;;;;;;;;;;40.06;29.59;98640.53;5090959;28;19912;-47
2023/07/11 06:39:50;;;;;;;;;;;;;;;40.39;29.43;98646.66;5092308;28;19912;-47
2023/07/11 06:42:17;;;;;;;;;;;;;;;40.66;28.85;98636.66;5092337;28;19985;-46
2023/07/11 06:44:43;;;;;;;;;;;;;;;40.80;28.27;98638.53;5091007;28;19916;-47
2023/07/11 06:47:09;;;;;;;;;;;;;;;40.51;27.80;98640.72;5092194;28;20429;-47
2023/07/11 06:49:34;;;;;;;;;;;;;;;40.83;28.38;98642.44;5092314;28;19912;-46
2023/07/11 06:52:00;;;;;;;;;;;;;;;41.50;27.64;98646.56;5092164;28;19912;-46
2023/07/11 06:54:25;;;;;;;;;;;;;;;42.27;26.96;98639.75;5092285;28;19919;-46
2023/07/11 06:56:54;;;;;;;;;;;;;;;43.11;26.16;98644.84;5093315;28;19919;-47
2023/07/11 06:59:20;;;;;;;;;;;;;;;43.52;25.65;98640.94;5096390;28;20006;-46
2023/07/11 07:01:45;;;;;;;;;;;;;;;44.20;24.37;98637.59;5094965;28;19958;-46
2023/07/11 07:04:13;;;;;;;;;;;;;;;44.42;24.30;98642.63;5096212;28;19911;-47
2023/07/11 07:06:39;;;;;;;;;;;;;;;44.79;24.20;98637.81;5096178;28;19916;-47
2023/07/11 07:09:04;;;;;;;;;;;;;;;45.62;23.40;98634.47;5094863;28;19916;-47
2023/07/11 07:11:30;;;;;;;;;;;;;;;46.08;22.93;98625.28;5094818;28;20351;-47
2023/07/11 07:13:55;;;;;;;;;;;;;;;46.42;21.67;98622.63;5094744;28;19919;-47
2023/07/11 07:16:21;;;;;;;;;;;;;;;46.70;21.24;98619.38;5096047;28;19915;-47
2023/07/11 07:18:46;;;;;;;;;;;;;;;46.64;21.43;98628.25;5094743;28;20003;-47
2023/07/11 07:21:12;;;;;;;;;;;;;;;46.78;21.18;98613.13;5095920;28;20369;-47
2023/07/11 07:23:37;;;;;;;;;;;;;;;46.74;21.00;98614.47;5094641;28;19927;-47
2023/07/11 07:26:03;;;;;;;;;;;;;;;46.26;20.97;98617.16;5094463;28;19912;-47
2023/07/11 07:28:29;;;;;;;;;;;;;;;45.12;21.06;98610.09;5095785;28;19917;-47
2023/07/11 07:30:56;;;;;;;;;;;;;;;43.67;22.20;98615.38;5094463;28;19918;-47
2023/07/11 07:33:25;;;;;;;;;;;;;;;42.64;22.80;98624.28;5095549;28;19916;-47
2023/07/11 07:35:58;;;;;;;;;;;;;;;42.03;23.27;98621.59;5094376;28;19915;-47
2023/07/11 07:38:27;;;;;;;;;;;;;;;41.17;24.72;98617.78;5095898;28;19965;-47
2023/07/11 07:40:53;;;;;;;;;;;;;;;41.19;25.00;98611.88;5095572;28;19916;-47
2023/07/11 07:43:18;;;;;;;;;;;;;;;41.05;25.42;98612.75;5095543;28;19912;-47
2023/07/11 07:45:48;;;;;;;;;;;;;;;40.71;26.10;98614.22;5095345;28;19912;-47
2023/07/11 07:48:13;;;;;;;;;;;;;;;41.09;25.94;98619.81;5095689;28;20360;-47
2023/07/11 07:50:39;;;;;;;;;;;;;;;41.74;25.44;98621.13;5094136;28;19966;-47
2023/07/11 07:53:04;;;;;;;;;;;;;;;42.86;24.73;98616.44;5094313;28;19973;-47
2023/07/11 07:55:29;;;;;;;;;;;;;;;44.11;23.52;98608.94;5095290;28;19981;-46
2023/07/11 07:57:55;;;;;;;;;;;;;;;44.65;22.79;98597.41;5093956;28;19919;-47
2023/07/11 08:00:20;;;;;;;;;;;;;;;45.27;21.99;98597.44;5095292;28;19919;-47
2023/07/11 08:02:46;;;;;;;;;;;;;;;46.09;21.55;98605.41;5095226;28;19916;-47
2023/07/11 08:05:12;;;;;;;;;;;;;;;47.07;20.43;98612.19;5093870;28;20356;-47
2023/07/11 08:07:38;;;;;;;;;;;;;;;47.94;19.71;98609.88;5094895;28;20263;-47
2023/07/11 08:10:03;;;;;;;;;;;;;;;48.54;19.53;98601.13;5094182;28;19912;-47
2023/07/11 08:12:29;;;;;;;;;;;;;;;49.01;18.97;98601.97;5095637;28;19984;-47
2023/07/11 08:14:54;;;;;;;;;;;;;;;49.38;17.97;98599.97;5093644;28;19927;-47
2023/07/11 08:17:20;;;;;;;;;;;;;;;49.74;17.77;98595.53;5093614;28;19913;-47
2023/07/11 08:19:45;;;;;;;;;;;;;;;49.80;17.37;98590.09;5094827;28;20015;-47
2023/07/11 08:22:10;;;;;;;;;;;;;;;49.86;17.23;98599.38;5094828;28;20320;-47
2023/07/11 08:24:36;;;;;;;;;;;;;;;49.70;16.71;98594.91;5093497;28;20396;-47
2023/07/11 08:27:02;;;;;;;;;;;;;;;49.20;17.06;98591.59;5093298;28;19911;-47
2023/07/11 08:29:28;;;;;;;;;;;;;;;48.87;16.75;98592.19;5094728;28;19912;-47
2023/07/11 08:31:54;;;;;;;;;;;;;;;48.19;17.35;98592.19;5093277;28;20274;-48
2023/07/11 08:34:20;;;;;;;;;;;;;;;47.91;17.53;98591.28;5092997;28;19927;-47
2023/07/11 08:36:48;;;;;;;;;;;;;;;47.83;17.55;98582.44;5094466;28;19912;-47
2023/07/11 08:39:13;;;;;;;;;;;;;;;47.80;17.75;98566.66;5076696;28;20369;-47
2023/07/11 08:41:45;;;;;;;;;;;;;;;47.52;17.92;98576.84;5093218;28;19916;-47
2023/07/11 08:44:14;;;;;;;;;;;;;;;47.64;17.45;98569.69;5094687;28;19916;-47
2023/07/11 08:46:42;;;;;;;;;;;;;;;47.48;17.87;98565.84;5094222;28;20009;-47
2023/07/11 08:49:11;;;;;;;;;;;;;;;47.34;17.64;98566.38;5093330;28;19912;-47
2023/07/11 08:51:40;;;;;;;;;;;;;;;47.03;18.14;98565.06;5094199;28;20000;-47
2023/07/11 08:54:14;;;;;;;;;;;;;;;46.99;18.06;98560.84;5092886;28;19919;-47
2023/07/11 08:56:44;;;;;;;;;;;;;;;47.67;18.20;98560.41;5092877;28;20032;-47
2023/07/11 08:59:21;;;;;;;;;;;;;;;48.11;16.98;98563.84;5094129;28;20035;-47
2023/07/11 09:02:06;;;;;;;;;;;;;;;47.63;16.93;98551.44;5094095;28;20278;-47
2023/07/11 09:04:32;;;;;;;;;;;;;;;47.63;17.47;98563.31;5093936;28;19919;-48
2023/07/11 09:07:15;;;;;;;;;;;;;;;47.53;16.94;98565.25;5093844;28;19912;-47
2023/07/11 09:09:41;;;;;;;;;;;;;;;46.10;17.37;98562.56;5092609;28;19916;-47
2023/07/11 09:12:19;;;;;;;;;;;;;;;44.78;18.71;98561.50;5093731;28;19912;-47
2023/07/11 09:15:11;;;;;;;;;;;;;;;44.46;19.50;98568.59;5093820;28;19994;-47
2023/07/11 09:17:57;;;;;;;;;;;;;;;44.50;19.88;98572.09;5091484;28;20408;-47
2023/07/11 09:20:35;;;;;;;;;;;;;;;44.88;19.99;98566.03;5092289;28;19914;-46
2023/07/11 09:23:22;;;;;;;;;;;;;;;45.48;19.10;98562.81;5092411;28;19973;-47
2023/07/11 09:25:49;;;;;;;;;;;;;;;45.44;19.68;98568.47;5092221;28;19912;-47
2023/07/11 09:28:20;;;;;;;;;;;;;;;45.70;19.07;98559.41;5093509;28;19951;-47
2023/07/11 09:30:48;;;;;;;;;;;;;;;45.82;19.64;98565.00;5093436;28;19912;-47
2023/07/11 09:33:19;;;;;;;;;;;;;;;45.84;19.17;98551.47;5093195;28;19923;-47
2023/07/11 09:35:45;;;;;;;;;;;;;;;46.04;19.12;98548.50;5093704;28;19912;-47
2023/07/11 09:38:14;;;;;;;;;;;;;;;45.94;18.97;98546.78;5092279;28;19915;-47
2023/07/11 09:40:44;;;;;;;;;;;;;;;46.16;18.78;98549.69;5093208;28;20030;-47
2023/07/11 09:43:10;;;;;;;;;;;;;;;46.18;18.76;98552.78;5093531;28;20363;-47
2023/07/11 09:45:44;;;;;;;;;;;;;;;45.81;18.69;98546.78;5093102;28;19912;-47
2023/07/11 09:48:10;;;;;;;;;;;;;;;45.47;18.85;98525.22;5093162;28;19919;-47
2023/07/11 09:50:38;;;;;;;;;;;;;;;45.02;19.04;98513.00;5093120;28;19912;-47
2023/07/11 09:53:09;;;;;;;;;;;;;;;45.28;19.29;98498.44;5091853;28;19912;-47
2023/07/11 09:55:36;;;;;;;;;;;;;;;46.10;18.90;98504.28;5093053;28;19912;-47
2023/07/11 09:58:02;;;;;;;;;;;;;;;46.12;18.23;98509.41;5093294;28;19912;-47
2023/07/11 10:00:28;;;;;;;;;;;;;;;46.06;18.66;98500.88;5092961;28;19961;-47
2023/07/11 10:02:56;;;;;;;;;;;;;;;46.42;18.28;98500.47;5074687;28;19990;-47
2023/07/11 10:05:23;;;;;;;;;;;;;;;46.61;17.86;98503.44;5092816;28;19919;-47
2023/07/11 10:07:58;;;;;;;;;;;;;;;46.25;17.97;98504.63;5091476;28;19912;-47
2023/07/11 10:10:23;;;;;;;;;;;;;;;45.92;17.66;98496.50;5093062;28;19935;-47
2023/07/11 10:12:50;;;;;;;;;;;;;;;44.82;18.36;98488.19;5091426;28;20384;-47
2023/07/11 10:15:16;;;;;;;;;;;;;;;44.33;18.94;98482.72;5092642;28;19930;-47
2023/07/11 10:17:43;;;;;;;;;;;;;;;44.38;19.39;98478.66;5091399;28;19911;-47
2023/07/11 10:20:15;;;;;;;;;;;;;;;44.32;19.54;98475.66;5091272;28;20522;-47
2023/07/11 10:22:41;;;;;;;;;;;;;;;44.48;20.18;98477.66;5092793;28;19912;-47
2023/07/11 10:25:33;;;;;;;;;;;;;;;44.88;19.16;98477.41;5091194;28;20408;-47
2023/07/11 10:28:03;;;;;;;;;;;;;;;44.04;19.90;98477.88;5090270;28;20366;-47
2023/07/11 10:30:31;;;;;;;;;;;;;;;43.45;20.47;98474.06;5092457;28;19912;-47
2023/07/11 10:33:03;;;;;;;;;;;;;;;43.32;20.39;98477.91;5090432;28;19919;-47
2023/07/11 10:35:29;;;;;;;;;;;;;;;43.37;20.54;98480.97;5092474;28;19939;-47
2023/07/11 10:38:02;;;;;;;;;;;;;;;43.64;20.31;98469.69;5092394;28;19912;-47
2023/07/11 10:40:31;;;;;;;;;;;;;;;43.72;20.42;98458.50;5092355;28;20393;-47
2023/07/11 10:43:00;;;;;;;;;;;;;;;43.63;20.03;98465.38;5091059;28;19965;-47
2023/07/11 10:45:27;;;;;;;;;;;;;;;43.34;20.25;98450.63;5092327;28;19951;-47
2023/07/11 10:47:52;;;;;;;;;;;;;;;43.72;20.71;98456.53;5092221;28;19912;-47
2023/07/11 10:50:26;;;;;;;;;;;;;;;44.15;20.13;98447.22;5090978;28;19912;-46
2023/07/11 10:52:53;;;;;;;;;;;;;;;44.30;19.63;98444.88;5092320;28;19912;-47
2023/07/11 10:55:20;;;;;;;;;;;;;;;43.98;19.69;98449.19;5092426;28;19959;-47
2023/07/11 10:57:50;;;;;;;;;;;;;;;43.55;20.42;98435.56;5092184;28;19919;-46
2023/07/11 11:00:17;;;;;;;;;;;;;;;43.21;20.68;98433.91;5092103;28;19947;-47
2023/07/11 11:02:46;;;;;;;;;;;;;;;43.40;20.86;98438.63;5090866;28;19934;-47
2023/07/11 11:05:24;;;;;;;;;;;;;;;43.77;20.92;98431.13;5090826;28;20355;-47
2023/07/11 11:07:54;;;;;;;;;;;;;;;44.44;20.60;98418.81;5092064;28;19916;-47
2023/07/11 11:10:19;;;;;;;;;;;;;;;45.06;19.88;98429.81;5092070;28;19924;-47
2023/07/11 11:13:04;;;;;;;;;;;;;;;45.10;19.89;98421.38;5090747;28;20308;-47
2023/07/11 11:15:29;;;;;;;;;;;;;;;45.26;19.47;98418.56;5090741;28;19923;-47
2023/07/11 11:18:21;;;;;;;;;;;;;;;44.62;19.93;98404.53;5090818;28;19912;-47
2023/07/11 11:20:46;;;;;;;;;;;;;;;43.85;20.99;98393.00;5092009;28;20328;-47
2023/07/11 11:23:12;;;;;;;;;;;;;;;43.95;20.88;98385.66;5091996;28;19919;-47
2023/07/11 11:25:45;;;;;;;;;;;;;;;44.22;20.60;98388.16;5091964;28;19916;-48
2023/07/11 11:28:37;;;;;;;;;;;;;;;44.63;20.41;98378.38;5091881;28;19912;-47
2023/07/11 11:31:21;;;;;;;;;;;;;;;45.12;20.09;98375.41;5075469;28;19912;-47
2023/07/11 11:33:52;;;;;;;;;;;;;;;45.43;19.57;98374.88;5091607;28;19916;-47
2023/07/11 11:36:35;;;;;;;;;;;;;;;45.05;19.94;98367.28;5091832;28;19923;-47
2023/07/11 11:39:19;;;;;;;;;;;;;;;45.00;19.80;98368.63;5091891;28;19954;-47
2023/07/11 11:41:47;;;;;;;;;;;;;;;45.27;20.13;98367.44;5090458;28;19919;-50
2023/07/11 11:44:17;;;;;;;;;;;;;;;45.77;19.72;98354.78;5093380;28;19919;-50
2023/07/11 11:46:44;;;;;;;;;;;;;;;46.02;18.91;98356.72;5094184;28;19912;-50
2023/07/11 11:49:11;;;;;;;;;;;;;;;45.22;18.99;98349.34;5095541;28;20313;-50
2023/07/11 11:51:36;;;;;;;;;;;;;;;44.15;19.55;98344.88;5095365;28;19912;-50
2023/07/11 11:54:22;;;;;;;;;;;;;;;43.39;20.85;98345.91;5095370;28;20375;-50
2023/07/11 11:56:52;;;;;;;;;;;;;;;43.22;21.55;98347.06;5094066;28;19915;-49
2023/07/11 11:59:20;;;;;;;;;;;;;;;43.40;21.20;98346.69;5094125;28;19916;-49
2023/07/11 12:01:55;;;;;;;;;;;;;;;43.20;21.46;98347.50;5095500;28;19920;-49
2023/07/11 12:04:27;;;;;;;;;;;;;;;43.13;21.65;98346.91;5095530;28;19948;-49
2023/07/11 12:06:56;;;;;;;;;;;;;;;42.54;21.58;98340.97;5093813;28;19927;-49
2023/07/11 12:09:23;;;;;;;;;;;;;;;42.37;22.71;98340.09;5095110;28;20007;-49
2023/07/11 12:12:07;;;;;;;;;;;;;;;42.41;21.95;98334.53;5095007;28;19965;-49
2023/07/11 12:14:43;;;;;;;;;;;;;;;41.92;22.14;98316.47;5094971;28;19915;-49
2023/07/11 12:17:28;;;;;;;;;;;;;;;41.58;22.48;98319.38;5093657;28;19912;-50
2023/07/11 12:20:02;;;;;;;;;;;;;;;41.49;22.87;98336.47;5094883;28;19912;-49
2023/07/11 12:22:32;;;;;;;;;;;;;;;41.16;23.17;98323.56;5094873;28;19912;-49
2023/07/11 12:25:13;;;;;;;;;;;;;;;40.81;23.82;98328.31;5093497;28;19911;-49
2023/07/11 12:27:38;;;;;;;;;;;;;;;40.80;24.12;98318.53;5094697;28;20359;-49
2023/07/11 12:30:13;;;;;;;;;;;;;;;40.61;24.27;98320.69;5094736;28;19912;-49
2023/07/11 12:32:40;;;;;;;;;;;;;;;40.58;24.21;98310.50;5093298;28;19962;-49
2023/07/11 12:35:05;;;;;;;;;;;;;;;40.68;24.55;98304.09;5094343;28;19966;-49
2023/07/11 12:37:51;;;;;;;;;;;;;;;40.91;24.35;98294.38;5094514;28;20309;-49
2023/07/11 12:40:19;;;;;;;;;;;;;;;41.39;24.25;98301.56;5092769;28;19912;-49
2023/07/11 12:42:52;;;;;;;;;;;;;;;41.22;24.01;98292.41;5094427;28;19970;-49
2023/07/11 12:45:20;;;;;;;;;;;;;;;40.85;24.27;98293.28;5093053;28;19912;-49
2023/07/11 12:47:46;;;;;;;;;;;;;;;40.56;24.77;98281.84;5094314;28;19959;-49
2023/07/11 12:50:21;;;;;;;;;;;;;;;40.27;25.50;98282.94;5094289;28;19912;-49